Time;durP1;ratioP1;P1;durP2;ratioP2;P2;SDS_P1;SDS_P2;PMS_P1;PMS_P2;Temp;Humidity;BMP_temperature;BMP_pressure;BME280_temperature;BME280_humidity;BME280_pressure;Samples;Min_cycle;Max_cycle;Signal;HPM_P1;HPM_P2
2023/11/28 00:00:09;;;;;;;19.27;14.55;;;2.60;99.90;;;;;;4936670;29;20236;-81
2023/11/28 00:02:36;;;;;;;17.20;14.05;;;2.50;99.90;;;;;;4936171;29;20238;-83
2023/11/28 00:05:03;;;;;;;22.10;14.77;;;2.50;99.90;;;;;;4942048;29;20239;-80
2023/11/28 00:07:33;;;;;;;18.08;13.55;;;2.50;99.90;;;;;;4954968;29;20290;-80
2023/11/28 00:10:00;;;;;;;15.38;13.50;;;2.60;99.90;;;;;;4955550;29;20614;-82
2023/11/28 00:12:27;;;;;;;19.50;14.10;;;2.60;99.90;;;;;;4954852;28;20228;-80
2023/11/28 00:14:54;;;;;;;19.13;14.20;;;2.60;99.90;;;;;;4955345;29;20614;-82
2023/11/28 00:17:21;;;;;;;22.05;15.57;;;2.60;99.90;;;;;;4955023;29;20224;-79
2023/11/28 00:19:49;;;;;;;21.88;14.38;;;2.60;99.90;;;;;;4955405;29;20323;-80
2023/11/28 00:22:19;;;;;;;16.80;13.25;;;2.60;99.90;;;;;;4954706;29;20228;-79
2023/11/28 00:24:47;;;;;;;20.13;13.38;;;2.60;99.90;;;;;;4955656;29;20234;-80
2023/11/28 00:27:15;;;;;;;16.60;14.75;;;2.60;99.90;;;;;;4954981;29;20232;-81
2023/11/28 00:29:46;;;;;;;17.00;12.63;;;2.50;99.90;;;;;;4954781;29;20254;-81
2023/11/28 00:32:15;;;;;;;17.95;13.88;;;2.50;99.90;;;;;;4957304;28;20654;-81
2023/11/28 00:34:42;;;;;;;15.70;14.10;;;2.50;99.90;;;;;;4954374;29;20702;-79
2023/11/28 00:37:10;;;;;;;21.75;16.27;;;2.50;99.90;;;;;;4956337;28;20704;-80
2023/11/28 00:39:37;;;;;;;22.70;15.55;;;2.50;99.90;;;;;;4958989;29;20231;-80
2023/11/28 00:42:06;;;;;;;19.88;14.73;;;2.50;99.90;;;;;;4959016;28;20223;-80
2023/11/28 00:44:33;;;;;;;19.92;14.15;;;2.60;99.90;;;;;;4958669;29;20227;-81
2023/11/28 00:47:00;;;;;;;17.17;14.85;;;2.60;99.90;;;;;;4959185;29;20239;-81
2023/11/28 00:49:27;;;;;;;18.60;14.18;;;2.60;99.90;;;;;;4948286;29;20224;-80
2023/11/28 00:51:54;;;;;;;20.67;15.88;;;2.60;99.90;;;;;;4939870;29;20228;-80
2023/11/28 00:54:21;;;;;;;22.15;15.10;;;2.60;99.90;;;;;;4938687;29;20237;-81
2023/11/28 00:56:50;;;;;;;20.55;16.27;;;2.50;99.90;;;;;;4944933;28;20226;-81
2023/11/28 00:59:18;;;;;;;24.02;17.08;;;2.50;99.90;;;;;;4959085;28;20227;-79
2023/11/28 01:01:46;;;;;;;17.77;15.82;;;2.60;99.90;;;;;;4957551;28;20231;-81
2023/11/28 01:04:13;;;;;;;22.45;16.23;;;2.60;99.90;;;;;;4959098;28;20550;-80
2023/11/28 01:06:40;;;;;;;22.10;16.38;;;2.60;99.90;;;;;;4958297;28;20224;-81
2023/11/28 01:09:07;;;;;;;21.90;15.85;;;2.60;99.90;;;;;;4958541;28;20228;-81
2023/11/28 01:11:33;;;;;;;19.35;16.77;;;2.60;99.90;;;;;;4958360;28;20227;-80
2023/11/28 01:14:00;;;;;;;21.35;15.18;;;2.60;99.90;;;;;;4958407;28;20242;-81
2023/11/28 01:16:29;;;;;;;25.00;17.70;;;2.60;99.90;;;;;;4958114;28;20216;-81
2023/11/28 01:18:56;;;;;;;20.00;15.57;;;2.70;99.90;;;;;;4958436;29;20243;-81
2023/11/28 01:21:23;;;;;;;21.05;17.05;;;2.60;99.90;;;;;;4957853;29;20315;-81
2023/11/28 01:23:53;;;;;;;19.85;16.20;;;2.60;99.90;;;;;;4958392;29;20232;-81
2023/11/28 01:26:21;;;;;;;18.38;14.60;;;2.60;99.90;;;;;;4958373;29;20235;-81
2023/11/28 01:28:48;;;;;;;21.30;15.90;;;2.60;99.90;;;;;;4957826;29;20558;-80
2023/11/28 01:31:17;;;;;;;20.10;16.58;;;2.60;99.90;;;;;;4958364;29;20690;-81
2023/11/28 01:33:46;;;;;;;18.98;15.73;;;2.60;99.90;;;;;;4957420;29;20373;-81
2023/11/28 01:36:14;;;;;;;25.77;15.73;;;2.60;99.90;;;;;;4958241;29;20563;-81
2023/11/28 01:38:41;;;;;;;17.98;15.77;;;2.60;99.90;;;;;;4957754;29;20238;-81
2023/11/28 01:41:11;;;;;;;20.27;14.23;;;2.60;99.90;;;;;;4947240;29;20223;-81
2023/11/28 01:43:38;;;;;;;25.65;15.50;;;2.60;99.90;;;;;;4946635;29;20232;-81
2023/11/28 01:46:11;;;;;;;21.63;16.13;;;2.60;99.90;;;;;;4957372;29;20239;-81
2023/11/28 01:48:38;;;;;;;19.63;14.55;;;2.60;99.90;;;;;;4957095;28;20232;-81
2023/11/28 01:51:08;;;;;;;17.02;13.73;;;2.50;99.90;;;;;;4957828;29;20236;-81
2023/11/28 01:53:37;;;;;;;17.80;14.13;;;2.50;99.90;;;;;;4957573;29;20236;-81
2023/11/28 01:56:06;;;;;;;18.63;12.95;;;2.50;99.90;;;;;;4957260;29;20220;-81
2023/11/28 01:58:33;;;;;;;21.08;15.57;;;2.40;99.90;;;;;;4959327;28;20275;-81
2023/11/28 02:01:00;;;;;;;20.75;14.60;;;2.40;99.90;;;;;;4947249;29;20232;-81
2023/11/28 02:03:28;;;;;;;20.23;14.88;;;2.40;99.90;;;;;;4956767;29;20232;-81
2023/11/28 02:05:55;;;;;;;22.60;15.63;;;2.40;99.90;;;;;;4956903;29;20258;-81
2023/11/28 02:08:24;;;;;;;20.70;16.15;;;2.50;99.90;;;;;;4957629;29;20227;-81
2023/11/28 02:10:51;;;;;;;20.90;16.50;;;2.40;99.90;;;;;;4957276;29;20243;-80
2023/11/28 02:13:18;;;;;;;16.45;13.48;;;2.40;99.90;;;;;;4957837;28;20234;-81
2023/11/28 02:15:48;;;;;;;21.02;14.40;;;2.40;99.90;;;;;;4957150;29;20252;-81
2023/11/28 02:18:15;;;;;;;19.70;14.18;;;2.40;99.90;;;;;;4957081;29;20235;-81
2023/11/28 02:20:42;;;;;;;19.17;14.57;;;2.30;99.90;;;;;;4957380;29;20299;-81
2023/11/28 02:23:09;;;;;;;24.15;16.50;;;2.30;99.90;;;;;;4956591;29;20311;-81
2023/11/28 02:25:44;;;;;;;21.17;16.15;;;2.30;99.90;;;;;;4957281;29;20220;-81
2023/11/28 02:28:17;;;;;;;22.13;15.00;;;2.30;99.90;;;;;;4957108;29;20230;-81
2023/11/28 02:30:47;;;;;;;18.92;15.02;;;2.30;99.90;;;;;;4957311;29;20281;-81
2023/11/28 02:33:15;;;;;;;20.17;12.88;;;2.30;99.90;;;;;;4946219;29;20235;-81
2023/11/28 02:35:42;;;;;;;18.45;12.10;;;2.40;99.90;;;;;;4956930;29;20252;-81
2023/11/28 02:38:09;;;;;;;16.17;13.13;;;2.40;99.90;;;;;;4956699;29;20248;-81
2023/11/28 02:40:36;;;;;;;18.52;13.93;;;2.40;99.90;;;;;;4957246;29;20235;-81
2023/11/28 02:43:03;;;;;;;16.30;13.57;;;2.30;99.90;;;;;;4950270;28;20229;-81
2023/11/28 02:45:32;;;;;;;20.25;13.13;;;2.40;99.90;;;;;;4956848;29;20227;-81
2023/11/28 02:47:59;;;;;;;14.27;12.80;;;2.40;99.90;;;;;;4956097;29;20678;-81
2023/11/28 02:50:26;;;;;;;18.13;14.82;;;2.40;99.90;;;;;;4956523;29;20225;-81
2023/11/28 02:52:53;;;;;;;15.57;13.18;;;2.40;99.90;;;;;;4957062;29;20264;-81
2023/11/28 02:55:20;;;;;;;20.95;13.73;;;2.50;99.90;;;;;;4937126;29;20307;-81
2023/11/28 02:57:48;;;;;;;18.77;13.85;;;2.40;99.90;;;;;;4937352;29;20232;-82
2023/11/28 03:00:16;;;;;;;16.35;12.57;;;2.40;99.90;;;;;;4936709;29;20268;-81
2023/11/28 03:02:44;;;;;;;14.13;10.70;;;2.40;99.90;;;;;;4937452;29;20235;-81
2023/11/28 03:05:12;;;;;;;14.45;12.15;;;2.20;99.90;;;;;;4937155;29;20245;-81
2023/11/28 03:07:39;;;;;;;16.35;12.15;;;2.20;99.90;;;;;;4937327;29;20730;-81
2023/11/28 03:10:09;;;;;;;16.25;11.77;;;2.20;99.90;;;;;;4936653;29;20224;-81
2023/11/28 03:12:36;;;;;;;13.20;10.68;;;2.10;99.90;;;;;;4937674;29;20247;-81
2023/11/28 03:15:04;;;;;;;16.45;11.18;;;2.10;99.90;;;;;;4936858;29;20236;-81
2023/11/28 03:17:31;;;;;;;15.10;11.75;;;2.10;99.90;;;;;;4937881;29;20738;-81
2023/11/28 03:20:00;;;;;;;16.40;10.93;;;2.10;99.90;;;;;;4936974;29;20698;-81
2023/11/28 03:22:27;;;;;;;14.13;11.30;;;2.10;99.90;;;;;;4936343;29;20537;-81
2023/11/28 03:24:54;;;;;;;14.07;10.20;;;2.20;99.90;;;;;;4937441;29;20574;-81
2023/11/28 03:27:21;;;;;;;15.50;10.35;;;2.10;99.90;;;;;;4936372;29;20229;-81
2023/11/28 03:29:48;;;;;;;12.90;9.40;;;2.10;99.90;;;;;;4926286;29;20234;-80
2023/11/28 03:32:15;;;;;;;11.63;9.07;;;2.10;99.90;;;;;;4936562;29;20244;-80
2023/11/28 03:34:42;;;;;;;11.77;9.45;;;2.10;99.90;;;;;;4937185;29;20252;-80
2023/11/28 03:37:11;;;;;;;10.73;8.60;;;2.10;99.90;;;;;;4938037;29;20225;-80
2023/11/28 03:39:38;;;;;;;10.50;9.23;;;2.10;99.90;;;;;;4936652;29;20243;-80
2023/11/28 03:42:05;;;;;;;10.52;8.00;;;2.10;99.90;;;;;;4936925;29;20233;-80
2023/11/28 03:44:32;;;;;;;15.85;8.50;;;2.10;99.90;;;;;;4936451;29;20239;-80
2023/11/28 03:46:59;;;;;;;11.27;8.90;;;2.20;99.90;;;;;;4937024;29;20576;-80
2023/11/28 03:49:26;;;;;;;11.48;8.20;;;2.10;99.90;;;;;;4936766;29;20312;-80
2023/11/28 03:51:54;;;;;;;12.25;7.72;;;2.20;99.90;;;;;;4937011;29;20252;-80
2023/11/28 03:54:22;;;;;;;9.80;8.30;;;2.10;99.90;;;;;;4947489;28;20616;-80
2023/11/28 03:56:49;;;;;;;10.23;8.20;;;2.10;99.90;;;;;;4955917;29;20682;-81
2023/11/28 03:59:17;;;;;;;9.48;7.10;;;2.20;99.90;;;;;;4955301;29;20599;-80
2023/11/28 04:01:44;;;;;;;8.90;6.45;;;2.10;99.90;;;;;;4955933;29;20670;-80
2023/11/28 04:04:12;;;;;;;10.68;8.50;;;2.00;99.90;;;;;;4955880;29;20240;-80
2023/11/28 04:06:39;;;;;;;9.45;6.50;;;2.10;99.90;;;;;;4955272;29;20243;-81
2023/11/28 04:09:06;;;;;;;8.13;6.28;;;2.10;99.90;;;;;;4955891;29;20241;-81
2023/11/28 04:11:36;;;;;;;8.80;6.18;;;2.10;99.90;;;;;;4954314;29;20227;-81
2023/11/28 04:14:04;;;;;;;7.45;5.47;;;2.20;99.90;;;;;;4955817;29;20239;-80
2023/11/28 04:16:31;;;;;;;7.60;5.55;;;2.20;99.90;;;;;;4955343;29;20228;-80
2023/11/28 04:18:58;;;;;;;8.18;5.45;;;2.20;99.90;;;;;;4955329;29;20243;-80
2023/11/28 04:21:26;;;;;;;7.60;6.60;;;2.20;99.90;;;;;;4955945;29;20266;-81
2023/11/28 04:23:53;;;;;;;6.38;5.30;;;2.30;99.90;;;;;;4955424;29;20239;-81
2023/11/28 04:26:23;;;;;;;5.90;5.28;;;2.30;99.90;;;;;;4955228;29;20246;-81
2023/11/28 04:28:52;;;;;;;7.90;5.30;;;2.30;99.90;;;;;;4955187;29;20682;-80
2023/11/28 04:31:20;;;;;;;7.53;5.47;;;2.40;99.90;;;;;;4954267;29;20231;-81
2023/11/28 04:33:50;;;;;;;6.65;6.05;;;2.40;99.90;;;;;;4955190;29;21423;-81
2023/11/28 04:36:18;;;;;;;7.60;6.15;;;2.40;99.90;;;;;;4955362;29;20239;-80
2023/11/28 04:38:45;;;;;;;8.68;5.20;;;2.40;99.90;;;;;;4954519;29;20220;-80
2023/11/28 04:41:15;;;;;;;7.20;5.82;;;2.30;99.90;;;;;;4955018;29;20307;-80
2023/11/28 04:43:42;;;;;;;5.93;4.55;;;2.40;99.90;;;;;;4954397;29;20733;-80
2023/11/28 04:46:13;;;;;;;6.75;4.53;;;2.40;99.90;;;;;;4955460;29;20227;-80
2023/11/28 04:48:40;;;;;;;5.55;5.05;;;2.40;99.90;;;;;;4954848;29;20246;-81
2023/11/28 04:51:10;;;;;;;5.88;5.10;;;2.40;99.90;;;;;;4955280;29;20224;-80
2023/11/28 04:53:39;;;;;;;5.00;4.53;;;2.40;99.90;;;;;;4937173;28;20235;-80
2023/11/28 04:56:08;;;;;;;7.78;4.43;;;2.50;99.90;;;;;;4954354;28;20228;-81
2023/11/28 04:58:35;;;;;;;5.78;5.28;;;2.50;99.90;;;;;;4944929;29;20224;-80
2023/11/28 05:01:03;;;;;;;11.30;6.20;;;2.50;99.90;;;;;;4954460;29;20291;-79
2023/11/28 05:03:31;;;;;;;5.70;4.57;;;2.50;99.90;;;;;;4954377;29;20319;-81
2023/11/28 05:05:58;;;;;;;4.63;4.13;;;2.50;99.90;;;;;;4954808;29;20232;-80
2023/11/28 05:08:25;;;;;;;5.45;4.68;;;2.50;99.90;;;;;;4955203;29;20232;-80
2023/11/28 05:11:04;;;;;;;6.07;4.60;;;2.50;99.90;;;;;;4954070;29;20242;-80
2023/11/28 05:13:40;;;;;;;6.50;4.15;;;2.50;99.90;;;;;;4954995;29;20674;-80
2023/11/28 05:16:17;;;;;;;5.25;4.75;;;2.60;99.90;;;;;;4944229;29;20235;-79
2023/11/28 05:18:46;;;;;;;6.45;4.60;;;2.60;99.90;;;;;;4954944;29;20251;-80
2023/11/28 05:21:15;;;;;;;6.38;4.97;;;2.70;99.90;;;;;;4954555;29;20224;-80
2023/11/28 05:23:42;;;;;;;10.50;4.68;;;2.70;99.90;;;;;;4956578;28;20322;-80
2023/11/28 05:26:09;;;;;;;7.50;5.50;;;2.60;99.90;;;;;;4957174;29;20235;-80
2023/11/28 05:28:37;;;;;;;4.75;4.10;;;2.60;99.90;;;;;;4958067;29;20228;-81
2023/11/28 05:31:04;;;;;;;7.38;4.68;;;2.60;99.90;;;;;;4948177;29;20235;-80
2023/11/28 05:33:35;;;;;;;8.30;4.47;;;2.60;99.90;;;;;;4958235;29;20287;-80
2023/11/28 05:36:05;;;;;;;6.90;4.90;;;2.60;99.90;;;;;;4957789;29;20251;-80
2023/11/28 05:38:32;;;;;;;6.80;5.03;;;2.60;99.90;;;;;;4957310;29;20388;-80
2023/11/28 05:40:59;;;;;;;5.93;4.25;;;2.60;99.90;;;;;;4957755;29;20239;-80
2023/11/28 05:43:29;;;;;;;6.45;5.03;;;2.50;99.90;;;;;;4958281;29;20228;-81
2023/11/28 05:45:56;;;;;;;7.57;6.30;;;2.60;99.90;;;;;;4957814;29;20302;-81
2023/11/28 05:48:23;;;;;;;8.70;6.00;;;2.50;99.90;;;;;;4958051;29;20228;-81
2023/11/28 05:50:50;;;;;;;9.43;5.72;;;2.60;99.90;;;;;;4958202;29;20679;-80
2023/11/28 05:53:20;;;;;;;7.40;5.30;;;2.60;99.90;;;;;;4958173;28;20236;-80
2023/11/28 05:55:47;;;;;;;7.60;5.50;;;2.60;99.90;;;;;;4957729;29;20228;-80
2023/11/28 05:58:14;;;;;;;7.47;6.10;;;2.60;99.90;;;;;;4957174;29;20574;-80
2023/11/28 06:00:41;;;;;;;9.43;6.22;;;2.60;99.90;;;;;;4958002;29;20307;-80
2023/11/28 06:03:12;;;;;;;12.27;7.35;;;2.60;99.90;;;;;;4957682;29;20236;-80
2023/11/28 06:05:39;;;;;;;9.45;6.90;;;2.60;99.90;;;;;;4958023;29;20611;-80
2023/11/28 06:08:06;;;;;;;9.52;6.95;;;2.60;99.90;;;;;;4956572;29;20228;-80
2023/11/28 06:10:35;;;;;;;7.72;6.13;;;2.70;99.90;;;;;;4957877;29;20693;-80
2023/11/28 06:13:04;;;;;;;11.13;6.85;;;2.70;99.90;;;;;;4956403;29;20243;-80
2023/11/28 06:15:32;;;;;;;9.98;7.22;;;2.70;99.90;;;;;;4958271;29;20220;-80
2023/11/28 06:17:59;;;;;;;12.52;7.47;;;2.70;99.90;;;;;;4957693;29;20224;-80
2023/11/28 06:20:26;;;;;;;9.23;8.25;;;2.80;99.90;;;;;;4957176;29;20235;-80
2023/11/28 06:22:54;;;;;;;12.82;8.02;;;2.80;99.90;;;;;;4957278;29;20248;-80
2023/11/28 06:25:21;;;;;;;10.77;7.72;;;2.80;99.90;;;;;;4957261;29;20232;-80
2023/11/28 06:27:49;;;;;;;12.35;8.18;;;2.80;99.90;;;;;;4957576;29;20251;-81
2023/11/28 06:30:16;;;;;;;13.05;8.90;;;2.80;99.90;;;;;;4946465;29;20303;-80
2023/11/28 06:32:43;;;;;;;8.63;7.63;;;2.80;99.90;;;;;;4957041;29;20236;-81
2023/11/28 06:35:10;;;;;;;10.35;8.55;;;2.80;99.90;;;;;;4955306;28;20228;-80
2023/11/28 06:37:41;;;;;;;11.32;9.52;;;2.90;99.90;;;;;;4957189;29;20545;-80
2023/11/28 06:40:10;;;;;;;11.75;8.57;;;2.80;99.90;;;;;;4957478;29;20682;-81
2023/11/28 06:42:37;;;;;;;12.68;9.52;;;2.80;99.90;;;;;;4956330;29;20255;-80
2023/11/28 06:45:06;;;;;;;11.52;8.82;;;2.70;99.90;;;;;;4956776;29;20243;-80
2023/11/28 06:47:35;;;;;;;20.00;9.95;;;2.70;99.90;;;;;;4955557;29;20230;-80
2023/11/28 06:50:03;;;;;;;13.13;9.70;;;2.60;99.90;;;;;;4956246;29;20243;-81
2023/11/28 06:52:30;;;;;;;12.15;9.73;;;2.60;99.90;;;;;;4946916;29;20244;-80
2023/11/28 06:54:57;;;;;;;13.88;9.48;;;2.60;99.90;;;;;;4956248;28;20232;-80
2023/11/28 06:57:24;;;;;;;14.30;10.35;;;2.70;99.90;;;;;;4956226;29;20247;-81
2023/11/28 06:59:51;;;;;;;15.60;10.35;;;2.70;99.90;;;;;;4956431;29;20290;-81
2023/11/28 07:02:19;;;;;;;16.35;10.93;;;2.70;99.90;;;;;;4956218;29;20633;-81
2023/11/28 07:04:46;;;;;;;19.55;12.70;;;2.70;99.90;;;;;;4956230;29;20706;-79
2023/11/28 07:07:14;;;;;;;16.23;12.48;;;2.70;99.90;;;;;;4956222;29;20239;-81
2023/11/28 07:09:43;;;;;;;18.20;13.05;;;2.70;99.90;;;;;;4956170;29;20247;-80
2023/11/28 07:12:10;;;;;;;16.88;12.23;;;2.70;99.90;;;;;;4956801;29;20311;-80
2023/11/28 07:14:37;;;;;;;16.00;12.60;;;2.60;99.90;;;;;;4955904;29;20251;-82
2023/11/28 07:17:04;;;;;;;17.58;13.10;;;2.70;99.90;;;;;;4956766;29;20255;-80
2023/11/28 07:19:34;;;;;;;16.52;11.82;;;2.60;99.90;;;;;;4955804;29;20679;-80
2023/11/28 07:22:06;;;;;;;18.05;12.40;;;2.60;99.90;;;;;;4957138;29;20234;-80
2023/11/28 07:24:33;;;;;;;18.92;13.35;;;2.60;99.90;;;;;;4956154;29;20601;-80
2023/11/28 07:27:02;;;;;;;17.65;13.35;;;2.60;99.90;;;;;;4957016;29;20255;-80
2023/11/28 07:29:29;;;;;;;20.13;12.88;;;2.60;99.90;;;;;;4955556;29;20239;-80
2023/11/28 07:31:56;;;;;;;25.35;14.15;;;2.60;99.90;;;;;;4948351;29;20327;-79
2023/11/28 07:34:23;;;;;;;15.20;12.50;;;2.70;99.90;;;;;;4955757;29;20232;-80
2023/11/28 07:36:56;;;;;;;16.58;13.23;;;2.70;99.90;;;;;;4935955;29;20228;-80
2023/11/28 07:39:24;;;;;;;19.75;13.82;;;2.70;99.90;;;;;;4955107;29;20220;-79
2023/11/28 07:44:26;;;;;;;17.08;13.73;;;2.70;99.90;;;;;;4995787;23;20235;-81
2023/11/28 07:46:53;;;;;;;23.05;12.98;;;2.60;99.90;;;;;;4955407;28;20613;-81
2023/11/28 07:49:20;;;;;;;18.15;12.85;;;2.60;99.90;;;;;;4956334;29;20228;-81
2023/11/28 07:51:47;;;;;;;21.05;14.63;;;2.70;99.90;;;;;;4955835;29;20244;-81
2023/11/28 07:54:16;;;;;;;17.92;13.55;;;2.70;99.90;;;;;;4956850;29;20312;-81
2023/11/28 07:56:43;;;;;;;19.80;15.25;;;2.80;99.90;;;;;;4956145;29;20242;-81
2023/11/28 07:59:10;;;;;;;23.60;16.20;;;2.80;99.90;;;;;;4955576;29;20646;-81
2023/11/28 08:01:37;;;;;;;19.70;15.07;;;2.80;99.90;;;;;;4955789;29;20236;-81
2023/11/28 08:04:08;;;;;;;24.42;18.08;;;2.90;99.90;;;;;;4955852;29;20227;-81
2023/11/28 08:06:35;;;;;;;24.95;16.75;;;2.80;99.90;;;;;;4955982;29;20224;-81
2023/11/28 08:09:05;;;;;;;23.83;15.73;;;2.90;99.90;;;;;;4955694;29;20232;-80
2023/11/28 08:11:34;;;;;;;21.10;13.90;;;2.80;99.90;;;;;;4956132;29;20228;-81
2023/11/28 08:14:01;;;;;;;24.90;18.13;;;2.80;99.90;;;;;;4954685;29;20239;-80
2023/11/28 08:16:28;;;;;;;21.48;16.50;;;2.90;99.90;;;;;;4955505;29;20604;-81
2023/11/28 08:18:55;;;;;;;22.90;16.42;;;2.90;99.90;;;;;;4954659;29;20224;-81
2023/11/28 08:21:22;;;;;;;23.20;15.25;;;2.90;99.90;;;;;;4946325;29;20320;-80
2023/11/28 08:23:49;;;;;;;22.05;15.90;;;2.90;99.90;;;;;;4955796;29;20231;-81
2023/11/28 08:26:16;;;;;;;22.90;14.90;;;3.00;99.90;;;;;;4955127;29;20224;-81
2023/11/28 08:28:45;;;;;;;26.38;16.92;;;3.00;99.90;;;;;;4955731;29;20232;-81
2023/11/28 08:31:12;;;;;;;22.73;15.55;;;3.00;99.90;;;;;;4955106;29;20232;-80
2023/11/28 08:33:42;;;;;;;22.42;15.30;;;3.00;99.90;;;;;;4955476;29;20577;-81
2023/11/28 08:36:09;;;;;;;20.45;14.60;;;3.00;99.90;;;;;;4954764;29;20271;-81
2023/11/28 08:38:38;;;;;;;28.20;17.20;;;3.10;99.90;;;;;;4955308;29;20228;-81
2023/11/28 08:41:06;;;;;;;24.55;14.70;;;3.10;99.90;;;;;;4954798;29;20232;-81
2023/11/28 08:43:35;;;;;;;20.67;15.18;;;3.10;99.90;;;;;;4954752;28;20243;-80
2023/11/28 08:46:03;;;;;;;23.15;15.48;;;3.10;99.90;;;;;;4946424;29;20298;-81
2023/11/28 08:48:31;;;;;;;19.23;14.90;;;3.20;99.90;;;;;;4955009;29;20228;-82
2023/11/28 08:50:58;;;;;;;19.35;15.85;;;3.20;99.90;;;;;;4954413;29;20232;-80
2023/11/28 08:53:25;;;;;;;20.70;14.43;;;3.20;99.90;;;;;;4955144;29;20227;-81
2023/11/28 08:55:53;;;;;;;18.90;13.80;;;3.20;99.90;;;;;;4954849;29;20243;-80
2023/11/28 08:58:20;;;;;;;18.67;15.07;;;3.10;99.90;;;;;;4955655;28;20223;-80
2023/11/28 09:00:53;;;;;;;19.77;14.90;;;3.10;99.90;;;;;;4957926;29;20409;-81
2023/11/28 09:03:21;;;;;;;20.30;15.05;;;3.10;99.90;;;;;;4958576;29;20563;-82
2023/11/28 09:05:48;;;;;;;25.95;17.15;;;3.10;99.90;;;;;;4958419;29;20232;-82
2023/11/28 09:08:15;;;;;;;21.20;14.50;;;3.20;99.90;;;;;;4958140;29;20678;-81
2023/11/28 09:10:42;;;;;;;23.15;16.20;;;3.20;99.90;;;;;;4958832;29;20231;-82
2023/11/28 09:13:09;;;;;;;20.35;14.75;;;3.20;99.90;;;;;;4957810;29;20584;-80
2023/11/28 09:15:39;;;;;;;19.90;15.02;;;3.20;99.90;;;;;;4958801;29;20557;-81
2023/11/28 09:18:06;;;;;;;22.67;14.55;;;3.10;99.90;;;;;;4957562;29;20290;-81
2023/11/28 09:20:37;;;;;;;17.40;13.80;;;3.10;99.90;;;;;;4958733;29;20228;-81
2023/11/28 09:23:04;;;;;;;22.23;14.40;;;3.10;99.90;;;;;;4958228;29;20242;-80
2023/11/28 09:25:31;;;;;;;20.73;14.98;;;3.10;99.90;;;;;;4958396;29;20228;-81
2023/11/28 09:27:58;;;;;;;16.98;13.38;;;3.10;99.90;;;;;;4958497;29;20239;-80
2023/11/28 09:30:25;;;;;;;21.83;16.20;;;3.10;99.90;;;;;;4958243;29;20224;-81
2023/11/28 09:32:52;;;;;;;23.08;13.98;;;3.10;99.90;;;;;;4958217;29;20283;-81
2023/11/28 09:35:19;;;;;;;20.20;15.93;;;3.10;99.90;;;;;;4957651;29;20551;-80
2023/11/28 09:37:48;;;;;;;18.73;13.88;;;3.10;99.90;;;;;;4958211;29;20572;-81
2023/11/28 09:40:15;;;;;;;18.73;13.35;;;3.10;99.90;;;;;;4957691;29;20228;-81
2023/11/28 09:42:42;;;;;;;18.20;14.30;;;3.20;99.90;;;;;;4958039;29;20236;-81
2023/11/28 09:45:10;;;;;;;17.65;12.90;;;3.20;99.90;;;;;;4957539;29;20227;-80
2023/11/28 09:47:43;;;;;;;19.80;11.98;;;3.20;99.90;;;;;;4958009;29;20224;-81
2023/11/28 09:50:14;;;;;;;17.00;13.40;;;3.20;99.90;;;;;;4957076;29;20689;-81
2023/11/28 09:52:43;;;;;;;15.85;12.32;;;3.20;99.90;;;;;;4957918;29;20311;-81
2023/11/28 09:55:16;;;;;;;15.40;12.65;;;3.20;99.90;;;;;;4957409;29;20667;-82
2023/11/28 10:00:57;;;;;;;21.05;13.05;;;3.20;99.90;;;;;;4955955;29;20561;-82
2023/11/28 10:03:41;;;;;;;15.60;11.35;;;3.20;99.90;;;;;;4957759;29;20657;-82
2023/11/28 10:06:13;;;;;;;18.10;12.60;;;3.20;99.90;;;;;;4956844;29;20250;-81
2023/11/28 10:08:44;;;;;;;16.55;12.13;;;3.20;99.90;;;;;;4957556;28;20239;-80
2023/11/28 10:11:16;;;;;;;14.48;11.63;;;3.20;99.90;;;;;;4956351;29;20310;-80
2023/11/28 10:13:44;;;;;;;16.33;11.32;;;3.20;99.90;;;;;;4956347;29;20231;-80
2023/11/28 10:16:12;;;;;;;14.07;11.38;;;3.20;99.90;;;;;;4957070;29;20224;-79
2023/11/28 10:18:44;;;;;;;17.13;12.77;;;3.30;99.90;;;;;;4957472;29;20252;-80
2023/11/28 10:21:11;;;;;;;15.50;11.95;;;3.30;99.90;;;;;;4956516;29;20259;-80
2023/11/28 10:23:38;;;;;;;17.15;12.98;;;3.30;99.90;;;;;;4957424;29;20262;-80
2023/11/28 10:26:11;;;;;;;13.57;10.90;;;3.20;99.90;;;;;;4956777;29;20235;-80
2023/11/28 10:28:40;;;;;;;14.50;10.73;;;3.20;99.90;;;;;;4956224;29;20239;-81
2023/11/28 10:31:07;;;;;;;14.95;11.52;;;3.30;99.90;;;;;;4957330;29;20268;-80
2023/11/28 10:33:35;;;;;;;20.10;12.23;;;3.30;99.90;;;;;;4956729;29;20722;-80
2023/11/28 10:36:02;;;;;;;17.52;12.65;;;3.30;99.90;;;;;;4955916;29;20287;-80
2023/11/28 10:38:29;;;;;;;17.77;12.82;;;3.30;99.90;;;;;;4956383;29;20310;-80
2023/11/28 10:40:56;;;;;;;14.27;11.27;;;3.30;99.90;;;;;;4956497;29;20608;-81
2023/11/28 10:43:23;;;;;;;14.23;11.63;;;3.30;99.90;;;;;;4956563;28;20235;-80
2023/11/28 10:45:54;;;;;;;13.00;10.77;;;3.30;99.90;;;;;;4956311;29;20228;-80
2023/11/28 10:48:22;;;;;;;12.45;10.95;;;3.30;99.90;;;;;;4956816;29;20295;-80
2023/11/28 10:50:49;;;;;;;15.23;11.13;;;3.20;99.90;;;;;;4956189;29;20223;-80
2023/11/28 10:53:18;;;;;;;12.65;10.38;;;3.20;99.90;;;;;;4956800;29;20227;-81
2023/11/28 10:55:49;;;;;;;12.70;9.60;;;3.20;99.90;;;;;;4956146;29;20220;-80
2023/11/28 10:58:17;;;;;;;15.13;10.35;;;3.30;99.90;;;;;;4957105;29;20653;-80
2023/11/28 11:00:52;;;;;;;14.75;11.35;;;3.30;99.90;;;;;;4955815;29;20613;-80
2023/11/28 11:03:22;;;;;;;13.73;10.75;;;3.40;99.90;;;;;;4956584;29;20232;-79
2023/11/28 11:05:50;;;;;;;13.30;9.38;;;3.40;99.90;;;;;;4956050;29;20228;-80
2023/11/28 11:08:17;;;;;;;14.20;10.52;;;3.50;99.90;;;;;;4956262;29;20250;-80
2023/11/28 11:10:45;;;;;;;16.02;11.07;;;3.50;99.90;;;;;;4955717;29;20259;-80
2023/11/28 11:13:26;;;;;;;17.50;12.48;;;3.50;99.90;;;;;;4956345;29;20247;-80
2023/11/28 11:16:04;;;;;;;13.55;11.13;;;3.50;99.90;;;;;;4952587;29;20635;-80
2023/11/28 11:18:37;;;;;;;13.30;10.40;;;3.40;99.90;;;;;;4949293;29;20224;-80
2023/11/28 11:21:12;;;;;;;12.05;9.38;;;3.40;99.90;;;;;;4945667;28;20247;-80
2023/11/28 11:23:41;;;;;;;16.17;10.43;;;3.40;99.90;;;;;;4952169;29;20234;-79
2023/11/28 11:26:09;;;;;;;12.98;9.15;;;3.30;99.90;;;;;;4954614;29;20240;-79
2023/11/28 11:28:36;;;;;;;13.60;10.38;;;3.30;99.90;;;;;;4949419;28;20251;-80
2023/11/28 11:31:10;;;;;;;12.48;10.18;;;3.40;99.90;;;;;;4950180;28;20217;-80
2023/11/28 11:33:38;;;;;;;10.40;9.40;;;3.30;99.90;;;;;;4947464;29;20286;-82
2023/11/28 11:36:07;;;;;;;12.70;9.88;;;3.30;99.90;;;;;;4940642;29;20233;-82
2023/11/28 11:38:35;;;;;;;11.55;9.93;;;3.30;99.90;;;;;;4946024;29;20253;-81
2023/11/28 11:41:04;;;;;;;15.98;12.80;;;3.30;99.90;;;;;;4954098;28;20231;-82
2023/11/28 11:43:41;;;;;;;14.73;11.70;;;3.30;99.90;;;;;;4953784;28;20232;-82
2023/11/28 11:46:10;;;;;;;14.88;11.35;;;3.30;99.90;;;;;;4945309;28;20320;-80
2023/11/28 11:48:39;;;;;;;17.27;12.77;;;3.30;99.90;;;;;;4948776;28;20231;-80
2023/11/28 11:51:06;;;;;;;14.65;11.70;;;3.30;99.90;;;;;;4957725;28;20232;-80
2023/11/28 11:53:35;;;;;;;12.68;11.15;;;3.30;99.90;;;;;;4952274;28;20303;-80
2023/11/28 11:56:02;;;;;;;15.25;11.82;;;3.30;99.90;;;;;;4952468;28;20560;-79
2023/11/28 11:58:33;;;;;;;11.23;10.13;;;3.20;99.90;;;;;;4952474;28;20232;-80
2023/11/28 12:01:01;;;;;;;11.35;9.52;;;3.20;99.90;;;;;;4955131;29;20298;-80
2023/11/28 12:03:30;;;;;;;12.07;9.68;;;3.10;99.90;;;;;;4955503;29;20224;-79
2023/11/28 12:05:59;;;;;;;12.38;10.38;;;3.10;99.90;;;;;;4954639;29;20250;-80
2023/11/28 12:08:27;;;;;;;11.77;9.77;;;3.10;99.90;;;;;;4955058;29;20314;-80
2023/11/28 12:11:08;;;;;;;13.13;9.70;;;3.10;99.90;;;;;;4954905;29;20303;-80
2023/11/28 12:13:37;;;;;;;13.50;10.48;;;3.10;99.90;;;;;;4955562;29;20248;-80
2023/11/28 12:16:04;;;;;;;14.52;9.73;;;3.10;99.90;;;;;;4954893;29;20669;-80
2023/11/28 12:18:32;;;;;;;12.43;10.25;;;3.10;99.90;;;;;;4954710;29;20235;-80
2023/11/28 12:21:00;;;;;;;12.20;10.90;;;3.10;99.90;;;;;;4954860;29;20232;-80
2023/11/28 12:23:27;;;;;;;12.65;9.55;;;3.10;99.90;;;;;;4955354;29;20231;-80
2023/11/28 12:25:55;;;;;;;13.98;12.27;;;3.10;99.90;;;;;;4954797;29;20543;-80
2023/11/28 12:28:23;;;;;;;12.70;11.30;;;3.10;99.90;;;;;;4955509;29;20248;-80
2023/11/28 12:30:52;;;;;;;11.18;9.35;;;3.10;99.90;;;;;;4954315;29;20228;-80
2023/11/28 12:33:19;;;;;;;11.93;10.15;;;3.10;99.90;;;;;;4956432;28;20236;-80
2023/11/28 12:35:48;;;;;;;10.65;9.63;;;3.10;99.90;;;;;;4958173;29;20230;-80
2023/11/28 12:38:18;;;;;;;12.50;9.63;;;3.10;99.90;;;;;;4954757;29;20224;-80
2023/11/28 12:40:46;;;;;;;14.02;10.23;;;3.00;99.90;;;;;;4946897;28;20299;-80
2023/11/28 12:43:20;;;;;;;11.10;9.07;;;3.00;99.90;;;;;;5041366;23;20311;-80
2023/11/28 12:45:50;;;;;;;12.45;9.15;;;3.00;99.90;;;;;;4945401;28;20239;-80
2023/11/28 12:48:18;;;;;;;12.85;10.00;;;3.00;99.90;;;;;;4938765;29;20232;-81
2023/11/28 12:50:45;;;;;;;14.43;9.32;;;3.00;99.90;;;;;;4938061;29;20235;-80
2023/11/28 12:53:27;;;;;;;9.38;8.45;;;3.00;99.90;;;;;;4939233;29;20228;-79